createdAt,value
2024-02-29T00:02:18.085Z,93.57
2024-02-29T00:04:50.316Z,96.40
2024-02-29T00:07:23.101Z,94.35
2024-02-29T00:09:55.350Z,88.73
2024-02-29T00:12:27.695Z,91.25
2024-02-29T00:15:00.168Z,90.47
2024-02-29T00:17:33.018Z,88.50
2024-02-29T00:20:10.336Z,87.68
2024-02-29T00:22:43.227Z,88.55
2024-02-29T00:25:15.450Z,91.43
2024-02-29T00:27:47.771Z,87.45
2024-02-29T00:30:19.967Z,87.20
2024-02-29T00:32:56.798Z,87.15
2024-02-29T00:35:30.142Z,86.97
2024-02-29T00:38:02.403Z,85.22
2024-02-29T00:40:34.568Z,81.75
2024-02-29T00:43:06.833Z,86.35
2024-02-29T00:45:39.324Z,81.43
2024-02-29T00:48:12.467Z,84.15
2024-02-29T00:50:44.891Z,84.30
2024-02-29T00:53:17.610Z,86.90
2024-02-29T00:55:50.398Z,81.22
2024-02-29T00:58:23.428Z,91.18
2024-02-29T01:00:56.019Z,83.38
2024-02-29T01:03:30.069Z,86.47
2024-02-29T01:06:03.027Z,84.47
2024-02-29T01:08:35.669Z,85.20
2024-02-29T01:11:07.989Z,83.13
2024-02-29T01:13:40.202Z,91.40
2024-02-29T01:16:12.537Z,85.70
2024-02-29T01:18:44.870Z,91.80
2024-02-29T01:21:18.010Z,82.05
2024-02-29T01:23:50.234Z,88.13
2024-02-29T01:26:23.020Z,90.88
2024-02-29T01:28:55.407Z,89.97
2024-02-29T01:31:27.585Z,95.22
2024-02-29T01:33:59.877Z,88.35
2024-02-29T01:36:32.251Z,89.82
2024-02-29T01:39:04.415Z,92.88
2024-02-29T01:41:37.505Z,87.93
2024-02-29T01:44:09.858Z,89.78
2024-02-29T01:46:42.874Z,88.10
2024-02-29T01:49:16.634Z,84.63
2024-02-29T01:51:49.699Z,88.10
2024-02-29T01:54:22.056Z,88.30
2024-02-29T01:56:54.353Z,87.78
2024-02-29T01:59:28.020Z,83.78
2024-02-29T02:02:00.567Z,89.55
2024-02-29T02:04:33.405Z,84.97
2024-02-29T02:07:06.104Z,87.73
2024-02-29T02:09:42.531Z,86.13
2024-02-29T02:12:15.005Z,81.35
2024-02-29T02:14:47.369Z,87.32
2024-02-29T02:17:19.641Z,87.72
2024-02-29T02:19:53.144Z,85.55
2024-02-29T02:22:25.903Z,83.22
2024-02-29T02:24:58.436Z,86.03
2024-02-29T02:27:30.690Z,79.57
2024-02-29T02:30:08.352Z,80.55
2024-02-29T02:32:41.516Z,91.57
2024-02-29T02:35:13.923Z,93.07
2024-02-29T02:37:49.116Z,88.63
2024-02-29T02:40:21.297Z,85.20
2024-02-29T02:42:53.595Z,89.35
2024-02-29T02:45:26.379Z,81.93
2024-02-29T02:47:58.760Z,95.97
2024-02-29T02:50:30.931Z,84.28
2024-02-29T02:53:05.529Z,84.68
2024-02-29T02:55:37.703Z,91.38
2024-02-29T02:58:10.121Z,90.55
2024-02-29T03:00:42.821Z,86.55
2024-02-29T03:03:15.567Z,85.40
2024-02-29T03:05:48.067Z,88.20
2024-02-29T03:08:22.078Z,96.13
2024-02-29T03:10:54.414Z,91.22
2024-02-29T03:13:26.774Z,93.82
2024-02-29T03:15:59.642Z,83.28
2024-02-29T03:18:31.966Z,80.43
2024-02-29T03:21:05.010Z,84.72
2024-02-29T03:23:37.412Z,89.65
2024-02-29T03:26:10.511Z,86.13
2024-02-29T03:28:43.348Z,89.85
2024-02-29T03:31:16.472Z,90.07
2024-02-29T03:33:48.719Z,90.40
2024-02-29T03:36:21.084Z,86.22
2024-02-29T03:38:53.306Z,82.32
2024-02-29T03:41:25.694Z,81.30
2024-02-29T03:43:58.227Z,80.55
2024-02-29T03:46:30.458Z,87.22
2024-02-29T03:49:02.670Z,87.38
2024-02-29T03:51:35.361Z,85.72
2024-02-29T03:54:07.875Z,82.97
2024-02-29T03:56:40.135Z,86.30
2024-02-29T03:59:12.458Z,83.43
2024-02-29T04:01:49.523Z,88.07
2024-02-29T04:04:22.059Z,85.47
2024-02-29T04:06:54.602Z,85.22
2024-02-29T04:09:26.903Z,88.07
2024-02-29T04:11:59.015Z,88.80
2024-02-29T04:14:31.273Z,86.70
2024-02-29T04:17:03.756Z,93.65
2024-02-29T04:19:35.984Z,85.00
2024-02-29T04:22:08.631Z,90.88
2024-02-29T04:24:41.094Z,93.30
2024-02-29T04:27:13.386Z,87.88
2024-02-29T04:29:47.472Z,89.85
2024-02-29T04:32:21.451Z,88.05
2024-02-29T04:34:55.079Z,90.20
2024-02-29T04:37:27.925Z,90.63
2024-02-29T04:40:00.483Z,92.22
2024-02-29T04:42:33.442Z,87.68
2024-02-29T04:45:07.004Z,89.85
2024-02-29T04:50:11.902Z,89.88
2024-02-29T04:52:44.626Z,92.68
2024-02-29T04:55:17.072Z,91.53
2024-02-29T04:57:49.537Z,99.07
2024-02-29T05:00:22.434Z,92.63
2024-02-29T05:02:55.306Z,98.05
2024-02-29T05:05:29.453Z,91.65
2024-02-29T05:08:02.170Z,88.22
2024-02-29T05:10:35.035Z,85.43
2024-02-29T05:13:07.471Z,94.65
2024-02-29T05:15:40.499Z,98.75
2024-02-29T05:18:12.790Z,93.47
2024-02-29T05:20:45.297Z,95.68
2024-02-29T05:23:17.729Z,95.93
2024-02-29T05:25:50.177Z,93.10
2024-02-29T05:28:22.387Z,96.85
2024-02-29T05:30:54.676Z,88.25
2024-02-29T05:33:27.497Z,90.28
2024-02-29T05:36:01.245Z,97.88
2024-02-29T05:41:05.989Z,93.90
2024-02-29T05:43:38.750Z,95.40
2024-02-29T05:46:11.347Z,100.10
2024-02-29T05:48:44.398Z,97.78
2024-02-29T05:51:16.729Z,93.35
2024-02-29T05:53:49.039Z,96.00
2024-02-29T05:56:21.551Z,96.95
2024-02-29T05:58:53.766Z,99.05
2024-02-29T06:01:26.059Z,96.50
2024-02-29T06:03:58.461Z,100.47
2024-02-29T06:06:30.741Z,99.60
2024-02-29T06:09:03.853Z,105.68
2024-02-29T06:11:36.696Z,98.38
2024-02-29T06:14:09.300Z,97.30
2024-02-29T06:16:41.857Z,102.93
2024-02-29T06:19:14.361Z,103.28
2024-02-29T06:21:47.410Z,102.10
2024-02-29T06:24:20.376Z,95.72
2024-02-29T06:26:52.705Z,100.85
2024-02-29T06:29:25.321Z,104.78
2024-02-29T06:31:58.596Z,98.27
2024-02-29T06:34:31.599Z,109.63
2024-02-29T06:37:04.257Z,106.95
2024-02-29T06:39:37.154Z,107.15
2024-02-29T06:42:09.437Z,103.88
2024-02-29T06:44:41.704Z,101.82
2024-02-29T06:47:14.231Z,105.15
2024-02-29T06:49:46.669Z,101.60
2024-02-29T06:52:19.080Z,105.50
2024-02-29T06:54:51.581Z,106.30
2024-02-29T06:57:23.787Z,109.25
2024-02-29T06:59:56.033Z,109.75
2024-02-29T07:02:28.289Z,102.60
2024-02-29T07:05:00.860Z,111.10
2024-02-29T07:07:33.331Z,111.07
2024-02-29T07:10:08.438Z,109.20
2024-02-29T07:12:42.426Z,109.50
2024-02-29T07:15:14.915Z,99.95
2024-02-29T07:17:47.380Z,107.55
2024-02-29T07:20:19.648Z,118.10
2024-02-29T07:22:53.050Z,109.88
2024-02-29T07:27:58.944Z,111.43
2024-02-29T07:30:31.891Z,108.82
2024-02-29T07:33:05.463Z,115.70
2024-02-29T07:35:38.231Z,107.93
2024-02-29T07:38:10.719Z,106.95
2024-02-29T07:40:43.305Z,114.05
2024-02-29T07:43:15.584Z,116.50
2024-02-29T07:45:47.980Z,107.50
2024-02-29T07:48:20.285Z,114.43
2024-02-29T07:50:53.954Z,122.95
2024-02-29T07:53:26.871Z,119.65
2024-02-29T07:55:59.748Z,118.68
2024-02-29T07:58:32.315Z,113.00
2024-02-29T08:01:05.107Z,105.30
2024-02-29T08:03:38.386Z,118.50
2024-02-29T08:06:11.196Z,109.95
2024-02-29T08:08:43.316Z,102.10
2024-02-29T08:11:15.656Z,107.03
2024-02-29T08:13:47.888Z,111.45
2024-02-29T08:16:20.132Z,109.68
2024-02-29T08:18:53.399Z,104.47
2024-02-29T08:21:25.808Z,105.40
2024-02-29T08:23:58.263Z,101.03
2024-02-29T08:26:31.064Z,113.05
2024-02-29T08:29:03.281Z,105.57
2024-02-29T08:31:35.976Z,107.40
2024-02-29T08:34:08.308Z,102.03
2024-02-29T08:36:41.180Z,97.03
2024-02-29T08:39:14.371Z,112.75
2024-02-29T08:41:46.824Z,96.75
2024-02-29T08:44:19.105Z,96.15
2024-02-29T08:46:51.545Z,99.80
2024-02-29T08:49:24.344Z,99.95
2024-02-29T08:51:57.245Z,92.82
2024-02-29T08:54:29.579Z,96.53
2024-02-29T08:57:04.765Z,92.40
2024-02-29T08:59:37.711Z,90.40
2024-02-29T09:02:10.098Z,85.75
2024-02-29T09:04:42.638Z,89.80
2024-02-29T09:07:15.101Z,87.30
2024-02-29T09:09:47.486Z,83.38
2024-02-29T09:12:22.365Z,85.18
2024-02-29T09:14:54.783Z,87.00
2024-02-29T09:17:27.012Z,78.68
2024-02-29T09:19:59.346Z,73.72
2024-02-29T09:22:31.806Z,70.75
2024-02-29T09:25:05.372Z,66.97
2024-02-29T09:30:10.263Z,62.58
2024-02-29T09:32:45.318Z,65.45
2024-02-29T09:35:17.641Z,47.95
2024-02-29T09:37:50.748Z,48.58
2024-02-29T09:40:23.163Z,60.42
2024-02-29T09:42:56.107Z,49.88
2024-02-29T09:45:35.673Z,43.95
2024-02-29T09:48:10.160Z,46.35
2024-02-29T09:50:42.610Z,47.33
2024-02-29T09:53:16.777Z,50.78
2024-02-29T09:55:49.711Z,48.78
2024-02-29T09:58:22.879Z,39.38
2024-02-29T10:00:55.102Z,43.63
2024-02-29T10:03:28.819Z,44.63
2024-02-29T10:06:01.640Z,46.67
2024-02-29T10:08:33.883Z,46.10
2024-02-29T10:11:07.094Z,55.38
2024-02-29T10:16:15.036Z,48.58
2024-02-29T10:18:47.352Z,47.67
2024-02-29T10:21:19.626Z,47.38
2024-02-29T10:23:52.158Z,45.63
2024-02-29T10:26:24.351Z,45.22
2024-02-29T10:29:09.400Z,51.90
2024-02-29T10:31:41.696Z,48.72
2024-02-29T10:34:14.723Z,49.15
2024-02-29T10:36:47.778Z,49.83
2024-02-29T10:39:20.212Z,50.50
2024-02-29T10:41:57.869Z,51.10
2024-02-29T10:44:33.892Z,54.42
2024-02-29T10:47:10.539Z,48.42
2024-02-29T10:49:48.520Z,45.85
2024-02-29T10:52:26.012Z,49.15
2024-02-29T10:55:07.308Z,50.08
2024-02-29T10:57:53.630Z,53.30
2024-02-29T11:00:27.115Z,52.95
2024-02-29T11:02:59.576Z,44.17
2024-02-29T11:05:32.408Z,54.78
2024-02-29T11:08:06.070Z,48.67
2024-02-29T11:10:39.559Z,45.55
2024-02-29T11:13:21.773Z,46.78
2024-02-29T11:15:56.787Z,42.65
2024-02-29T11:18:30.147Z,43.40
2024-02-29T11:21:06.775Z,55.08
2024-02-29T11:23:42.353Z,56.05
2024-02-29T11:26:14.746Z,46.72
2024-02-29T11:28:50.343Z,46.00
2024-02-29T11:31:23.491Z,48.95
2024-02-29T11:33:57.355Z,45.20
2024-02-29T11:36:33.590Z,44.97
2024-02-29T11:39:12.082Z,41.90
2024-02-29T11:41:45.694Z,46.67
2024-02-29T11:44:18.098Z,50.67
2024-02-29T11:46:51.365Z,43.33
2024-02-29T11:49:25.509Z,43.00
2024-02-29T11:51:58.705Z,45.45
2024-02-29T11:54:33.999Z,38.67
2024-02-29T11:57:07.102Z,40.47
2024-02-29T11:59:40.264Z,40.83
2024-02-29T12:02:13.330Z,40.40
2024-02-29T12:04:46.051Z,47.30
2024-02-29T12:07:18.693Z,45.35
2024-02-29T12:09:51.169Z,45.83
2024-02-29T12:12:23.658Z,45.15
2024-02-29T12:14:56.110Z,41.72
2024-02-29T12:17:28.676Z,39.30
2024-02-29T12:20:01.819Z,39.03
2024-02-29T12:22:34.348Z,38.42
2024-02-29T12:25:14.322Z,35.25
2024-02-29T12:27:47.263Z,33.55
2024-02-29T12:30:23.268Z,39.55
2024-02-29T12:32:56.340Z,40.33
2024-02-29T12:35:32.549Z,43.38
2024-02-29T12:38:04.962Z,41.17
2024-02-29T12:40:37.254Z,39.67
2024-02-29T12:43:15.088Z,37.47
2024-02-29T12:45:47.407Z,37.60
2024-02-29T12:48:20.182Z,37.88
2024-02-29T12:50:52.988Z,38.40
2024-02-29T12:53:25.496Z,45.80
2024-02-29T12:55:57.894Z,43.25
2024-02-29T12:58:30.229Z,46.70
2024-02-29T13:01:04.671Z,38.92
2024-02-29T13:03:37.037Z,46.42
2024-02-29T13:06:10.856Z,46.67
2024-02-29T13:08:43.061Z,51.17
2024-02-29T13:11:15.766Z,47.83
2024-02-29T13:13:48.049Z,44.00
2024-02-29T13:16:21.029Z,48.17
2024-02-29T13:18:53.297Z,45.60
2024-02-29T13:21:26.068Z,45.63
2024-02-29T13:23:58.453Z,43.97
2024-02-29T13:26:30.913Z,46.72
2024-02-29T13:29:04.223Z,49.85
2024-02-29T13:31:36.535Z,46.88
2024-02-29T13:34:08.861Z,50.97
2024-02-29T13:36:41.261Z,51.50
2024-02-29T13:39:13.529Z,47.55
2024-02-29T13:41:46.678Z,51.80
2024-02-29T13:44:20.108Z,50.95
2024-02-29T13:46:52.366Z,46.88
2024-02-29T13:49:24.656Z,43.03
2024-02-29T13:51:57.576Z,49.67
2024-02-29T13:54:29.786Z,44.33
2024-02-29T13:57:03.066Z,45.08
2024-02-29T13:59:35.362Z,55.33
2024-02-29T14:02:07.987Z,55.88
2024-02-29T14:04:40.327Z,50.80
2024-02-29T14:07:13.648Z,56.22
2024-02-29T14:09:45.906Z,56.42
2024-02-29T14:12:18.174Z,59.40
2024-02-29T14:14:50.417Z,63.67
2024-02-29T14:17:22.761Z,51.28
2024-02-29T14:19:55.201Z,55.78
2024-02-29T14:22:27.574Z,65.00
2024-02-29T14:24:59.862Z,56.97
2024-02-29T14:27:32.315Z,57.45
2024-02-29T14:30:10.371Z,53.67
2024-02-29T14:32:43.975Z,55.22
2024-02-29T14:35:16.608Z,58.78
2024-02-29T14:37:49.494Z,52.72
2024-02-29T14:40:21.800Z,52.30
2024-02-29T14:42:54.209Z,60.33
2024-02-29T14:45:26.606Z,54.65
2024-02-29T14:47:59.872Z,55.50
2024-02-29T14:50:32.324Z,63.38
2024-02-29T14:53:04.624Z,57.67
2024-02-29T14:55:37.290Z,61.92
2024-02-29T14:58:10.125Z,56.00
2024-02-29T15:00:43.283Z,56.50
2024-02-29T15:03:15.567Z,61.60
2024-02-29T15:05:48.180Z,59.72
2024-02-29T15:08:20.649Z,57.97
2024-02-29T15:10:53.133Z,63.17
2024-02-29T15:13:26.526Z,62.38
2024-02-29T15:15:58.969Z,62.00
2024-02-29T15:18:31.441Z,56.90
2024-02-29T15:21:03.923Z,62.35
2024-02-29T15:23:36.417Z,65.10
2024-02-29T15:26:12.247Z,61.73
2024-02-29T15:28:50.604Z,67.93
2024-02-29T15:31:23.062Z,59.05
2024-02-29T15:33:55.293Z,64.00
2024-02-29T15:36:27.729Z,64.25
2024-02-29T15:39:00.086Z,63.75
2024-02-29T15:41:33.048Z,66.95
2024-02-29T15:44:05.352Z,64.18
2024-02-29T15:46:38.354Z,61.63
2024-02-29T15:49:11.062Z,70.43
2024-02-29T15:51:43.319Z,65.82
2024-02-29T15:54:15.913Z,62.58
2024-02-29T15:56:49.245Z,62.15
2024-02-29T16:01:54.098Z,61.13
2024-02-29T16:04:27.289Z,66.38
2024-02-29T16:07:02.581Z,66.80
2024-02-29T16:09:34.823Z,68.95
2024-02-29T16:12:07.598Z,67.35
2024-02-29T16:14:41.770Z,56.58
2024-02-29T16:17:13.967Z,63.90
2024-02-29T16:19:47.997Z,67.80
2024-02-29T16:22:20.942Z,69.93
2024-02-29T16:24:53.223Z,63.92
2024-02-29T16:27:26.283Z,68.30
2024-02-29T16:29:58.556Z,66.18
2024-02-29T16:32:30.826Z,63.05
2024-02-29T16:35:05.079Z,63.00
2024-02-29T16:37:37.394Z,66.80
2024-02-29T16:40:10.955Z,68.07
2024-02-29T16:45:16.063Z,61.92
2024-02-29T16:47:48.449Z,74.38
2024-02-29T16:50:20.712Z,67.50
2024-02-29T16:52:52.946Z,69.32
2024-02-29T16:55:25.217Z,66.88
2024-02-29T16:57:57.813Z,69.43
2024-02-29T17:00:30.660Z,64.80
2024-02-29T17:03:02.962Z,67.90
2024-02-29T17:05:35.385Z,70.32
2024-02-29T17:08:09.606Z,70.95
2024-02-29T17:10:42.398Z,65.57
2024-02-29T17:13:15.017Z,72.67
2024-02-29T17:15:47.489Z,69.05
2024-02-29T17:18:20.240Z,68.17
2024-02-29T17:20:52.755Z,65.88
2024-02-29T17:23:25.122Z,72.63
2024-02-29T17:25:57.385Z,74.20
2024-02-29T17:28:29.851Z,71.35
2024-02-29T17:31:02.234Z,75.32
2024-02-29T17:33:35.010Z,68.65
2024-02-29T17:36:07.860Z,72.50
2024-02-29T17:38:42.300Z,62.03
2024-02-29T17:41:15.710Z,67.40
2024-02-29T17:43:48.268Z,72.05
2024-02-29T17:46:20.741Z,74.10
2024-02-29T17:48:53.485Z,72.45
2024-02-29T17:51:25.837Z,72.73
2024-02-29T17:53:58.038Z,69.80
2024-02-29T17:56:30.184Z,71.13
2024-02-29T17:59:02.454Z,67.55
2024-02-29T18:01:35.231Z,71.55
2024-02-29T18:04:07.897Z,70.85
2024-02-29T18:06:40.170Z,67.97
2024-02-29T18:09:14.154Z,74.22
2024-02-29T18:11:46.381Z,67.05
2024-02-29T18:14:19.469Z,71.85
2024-02-29T18:16:52.443Z,71.78
2024-02-29T18:19:24.785Z,69.10
2024-02-29T18:21:57.685Z,66.65
2024-02-29T18:24:31.492Z,66.82
2024-02-29T18:27:04.264Z,82.60
2024-02-29T18:29:36.868Z,76.53
2024-02-29T18:32:09.632Z,61.80
2024-02-29T18:34:41.834Z,72.40
2024-02-29T18:37:14.373Z,83.53
2024-02-29T18:39:46.891Z,77.28
2024-02-29T18:42:19.718Z,74.25
2024-02-29T18:44:53.093Z,70.43
2024-02-29T18:47:26.616Z,67.95
2024-02-29T18:49:59.432Z,80.50
2024-02-29T18:52:32.558Z,70.93
2024-02-29T18:55:09.076Z,77.35
2024-02-29T18:57:41.989Z,75.40
2024-02-29T19:00:16.595Z,76.30
2024-02-29T19:02:49.003Z,84.53
2024-02-29T19:05:21.757Z,83.03
2024-02-29T19:07:54.099Z,79.35
2024-02-29T19:10:26.885Z,81.73
2024-02-29T19:12:59.382Z,67.25
2024-02-29T19:15:32.167Z,70.13
2024-02-29T19:18:04.789Z,69.78
2024-02-29T19:20:37.379Z,56.47
2024-02-29T19:23:13.253Z,69.55
2024-02-29T19:25:49.946Z,70.45
2024-02-29T19:28:25.097Z,77.72
2024-02-29T19:30:57.629Z,73.07
2024-02-29T19:33:29.911Z,78.95
2024-02-29T19:36:02.334Z,73.47
2024-02-29T19:38:34.698Z,85.55
2024-02-29T19:41:07.182Z,81.47
2024-02-29T19:43:39.833Z,83.38
2024-02-29T19:46:14.610Z,81.50
2024-02-29T19:48:47.404Z,80.63
2024-02-29T19:51:19.587Z,78.40
2024-02-29T19:53:56.322Z,92.28
2024-02-29T19:56:29.049Z,70.28
2024-02-29T19:59:01.645Z,73.90
2024-02-29T20:01:34.267Z,95.18
2024-02-29T20:04:07.302Z,87.57
2024-02-29T20:06:43.177Z,88.63
2024-02-29T20:09:16.574Z,97.75
2024-02-29T20:14:21.948Z,84.90
2024-02-29T20:16:54.218Z,94.60
2024-02-29T20:19:27.015Z,103.40
2024-02-29T20:22:00.364Z,104.20
2024-02-29T20:24:32.911Z,107.47
2024-02-29T20:27:05.936Z,105.72
2024-02-29T20:29:40.781Z,102.65
2024-02-29T20:32:15.147Z,90.85
2024-02-29T20:34:48.756Z,88.22
2024-02-29T20:39:54.772Z,98.43
2024-02-29T20:44:59.676Z,90.55
2024-02-29T20:47:33.330Z,88.03
2024-02-29T20:50:06.150Z,93.85
2024-02-29T20:52:38.663Z,101.88
2024-02-29T20:55:11.494Z,88.97
2024-02-29T20:57:44.508Z,82.10
2024-02-29T21:00:17.642Z,88.43
2024-02-29T21:02:50.039Z,96.57
2024-02-29T21:05:22.484Z,91.88
2024-02-29T21:07:55.285Z,96.93
2024-02-29T21:10:27.593Z,102.68
2024-02-29T21:13:00.878Z,104.38
2024-02-29T21:15:33.134Z,97.50
2024-02-29T21:18:06.893Z,86.28
2024-02-29T21:20:39.226Z,99.28
2024-02-29T21:23:11.466Z,91.82
2024-02-29T21:25:44.002Z,94.97
2024-02-29T21:28:16.715Z,92.70
2024-02-29T21:30:48.970Z,93.77
2024-02-29T21:33:23.354Z,88.40
2024-02-29T21:35:56.141Z,89.60
2024-02-29T21:38:29.231Z,87.80
2024-02-29T21:41:01.404Z,90.68
2024-02-29T21:43:33.950Z,96.30
2024-02-29T21:46:08.485Z,93.13
2024-02-29T21:48:41.131Z,92.75
2024-02-29T21:51:20.060Z,90.60
2024-02-29T21:53:52.388Z,94.53
2024-02-29T21:56:24.568Z,86.15
2024-02-29T21:58:57.412Z,84.88
2024-02-29T22:01:29.846Z,89.28
2024-02-29T22:04:02.832Z,87.22
2024-02-29T22:06:35.350Z,93.28
2024-02-29T22:09:07.572Z,83.68
2024-02-29T22:11:39.854Z,90.47
2024-02-29T22:14:12.268Z,86.57
2024-02-29T22:16:45.158Z,94.47
2024-02-29T22:19:17.454Z,92.35
2024-02-29T22:21:50.503Z,90.25
2024-02-29T22:24:22.997Z,87.53
2024-02-29T22:26:56.071Z,87.40
2024-02-29T22:29:29.831Z,93.97
2024-02-29T22:32:02.333Z,89.00
2024-02-29T22:34:34.762Z,97.30
2024-02-29T22:37:07.338Z,98.68
2024-02-29T22:39:40.235Z,89.47
2024-02-29T22:42:13.165Z,90.45
2024-02-29T22:44:46.381Z,92.85
2024-02-29T22:49:51.761Z,86.25
2024-02-29T22:52:24.320Z,84.47
2024-02-29T22:54:56.603Z,98.82
2024-02-29T22:57:29.382Z,94.68
2024-02-29T23:00:09.608Z,90.68
2024-02-29T23:02:43.085Z,77.18
2024-02-29T23:05:16.025Z,94.18
2024-02-29T23:07:48.485Z,96.03
2024-02-29T23:10:21.381Z,125.57
2024-02-29T23:12:54.676Z,129.40
2024-02-29T23:15:26.927Z,102.93
2024-02-29T23:17:59.311Z,117.03
2024-02-29T23:20:31.529Z,104.07
2024-02-29T23:23:04.117Z,106.72
2024-02-29T23:25:37.196Z,97.68
2024-02-29T23:28:09.690Z,93.47
2024-02-29T23:30:41.931Z,83.55
2024-02-29T23:33:14.419Z,85.97
2024-02-29T23:35:47.056Z,97.75
2024-02-29T23:38:19.888Z,97.15
2024-02-29T23:40:52.421Z,103.63
2024-02-29T23:43:25.254Z,105.70
2024-02-29T23:45:57.626Z,105.32
2024-02-29T23:48:29.813Z,108.00
2024-02-29T23:51:02.889Z,110.10
2024-02-29T23:53:35.065Z,102.10
2024-02-29T23:56:07.754Z,92.57
2024-02-29T23:58:41.797Z,88.93
